sensor_id;sensor_type;location;lat;lon;timestamp;pressure;altitude;pressure_sealevel;temperature;humidity
63946;BME280;50122;56.330;43.838;2022-09-12T00:01:17;101403.22;;;8.30;78.37
63946;BME280;50122;56.330;43.838;2022-09-12T00:03:45;101428.44;;;8.46;78.17
63946;BME280;50122;56.330;43.838;2022-09-12T00:06:17;101424.94;;;8.47;78.08
63946;BME280;50122;56.330;43.838;2022-09-12T00:08:48;101415.44;;;8.35;78.16
63946;BME280;50122;56.330;43.838;2022-09-12T00:11:15;101427.59;;;8.46;78.29
63946;BME280;50122;56.330;43.838;2022-09-12T00:13:41;101422.38;;;8.41;78.18
63946;BME280;50122;56.330;43.838;2022-09-12T00:16:17;101427.53;;;8.49;78.66
63946;BME280;50122;56.330;43.838;2022-09-12T00:18:45;101428.44;;;8.46;78.17
63946;BME280;50122;56.330;43.838;2022-09-12T00:21:13;101411.81;;;8.43;78.00
63946;BME280;50122;56.330;43.838;2022-09-12T00:23:40;101424.16;;;8.41;78.60
63946;BME280;50122;56.330;43.838;2022-09-12T00:26:08;101432.06;;;8.39;78.64
63946;BME280;50122;56.330;43.838;2022-09-12T00:28:37;101425.13;;;8.33;79.09
63946;BME280;50122;56.330;43.838;2022-09-12T00:31:13;101408.63;;;8.22;79.04
63946;BME280;50122;56.330;43.838;2022-09-12T00:33:40;101424.22;;;8.34;78.85
63946;BME280;50122;56.330;43.838;2022-09-12T00:36:10;101415.47;;;8.34;79.43
63946;BME280;50122;56.330;43.838;2022-09-12T00:38:38;101419.72;;;8.41;79.24
63946;BME280;50122;56.330;43.838;2022-09-12T00:47:00;101404.03;;;8.35;78.54
63946;BME280;50122;56.330;43.838;2022-09-12T00:52:11;101424.97;;;8.44;78.92
63946;BME280;50122;56.330;43.838;2022-09-12T00:57:15;101417.91;;;8.46;79.02
63946;BME280;50122;56.330;43.838;2022-09-12T00:59:52;101421.47;;;8.45;78.99
63946;BME280;50122;56.330;43.838;2022-09-12T01:02:23;101415.28;;;8.43;79.01
63946;BME280;50122;56.330;43.838;2022-09-12T01:04:51;101416.16;;;8.47;79.02
63946;BME280;50122;56.330;43.838;2022-09-12T01:07:18;101407.41;;;8.43;78.78
63946;BME280;50122;56.330;43.838;2022-09-12T01:09:46;101414.38;;;8.47;78.85
63946;BME280;50122;56.330;43.838;2022-09-12T01:12:14;101401.28;;;8.44;78.97
63946;BME280;50122;56.330;43.838;2022-09-12T01:14:41;101411.72;;;8.49;79.18
63946;BME280;50122;56.330;43.838;2022-09-12T01:17:12;101402.13;;;8.45;79.29
63946;BME280;50122;56.330;43.838;2022-09-12T01:20:05;101402.13;;;8.43;78.89
63946;BME280;50122;56.330;43.838;2022-09-12T01:25:27;101406.53;;;8.43;78.81
63946;BME280;50122;56.330;43.838;2022-09-12T01:28:23;101416.13;;;8.48;78.91
63946;BME280;50122;56.330;43.838;2022-09-12T01:39:36;101415.28;;;8.48;78.75
63946;BME280;50122;56.330;43.838;2022-09-12T01:42:32;101418.81;;;8.45;78.29
63946;BME280;50122;56.330;43.838;2022-09-12T01:45:23;101413.59;;;8.42;78.19
63946;BME280;50122;56.330;43.838;2022-09-12T01:47:57;101417.09;;;8.41;78.42
63946;BME280;50122;56.330;43.838;2022-09-12T01:50:30;101417.09;;;8.41;78.38
63946;BME280;50122;56.330;43.838;2022-09-12T01:53:26;101408.31;;;8.42;78.60
63946;BME280;50122;56.330;43.838;2022-09-12T01:56:17;101416.22;;;8.42;78.63
63946;BME280;50122;56.330;43.838;2022-09-12T01:58:48;101403.22;;;8.31;78.87
63946;BME280;50122;56.330;43.838;2022-09-12T02:01:22;101409.25;;;8.38;78.72
63946;BME280;50122;56.330;43.838;2022-09-12T02:06:39;101412.69;;;8.42;78.49
63946;BME280;50122;56.330;43.838;2022-09-12T02:09:14;101420.59;;;8.42;78.53
63946;BME280;50122;56.330;43.838;2022-09-12T02:11:44;101418.88;;;8.41;78.70
63946;BME280;50122;56.330;43.838;2022-09-12T02:14:16;101421.47;;;8.42;78.52
63946;BME280;50122;56.330;43.838;2022-09-12T02:16:51;101404.84;;;8.39;78.47
63946;BME280;50122;56.330;43.838;2022-09-12T02:19:22;101399.78;;;8.28;78.44
63946;BME280;50122;56.330;43.838;2022-09-12T02:21:54;101407.53;;;8.35;78.84
63946;BME280;50122;56.330;43.838;2022-09-12T02:24:32;101418.00;;;8.40;79.02
63946;BME280;50122;56.330;43.838;2022-09-12T02:29:50;101398.84;;;8.32;78.37
63946;BME280;50122;56.330;43.838;2022-09-12T02:32:27;101418.00;;;8.40;78.95
63946;BME280;50122;56.330;43.838;2022-09-12T02:35:02;101407.41;;;8.42;79.01
63946;BME280;50122;56.330;43.838;2022-09-12T02:40:44;101417.06;;;8.46;78.58
63946;BME280;50122;56.330;43.838;2022-09-12T02:43:12;101406.53;;;8.43;78.64
63946;BME280;50122;56.330;43.838;2022-09-12T02:45:39;101404.81;;;8.40;78.29
63946;BME280;50122;56.330;43.838;2022-09-12T02:48:13;101389.16;;;8.32;78.36
63946;BME280;50122;56.330;43.838;2022-09-12T02:50:41;101398.66;;;8.41;78.10
63946;BME280;50122;56.330;43.838;2022-09-12T02:53:10;101402.94;;;8.50;77.96
63946;BME280;50122;56.330;43.838;2022-09-12T02:55:39;101397.72;;;8.47;77.88
63946;BME280;50122;56.330;43.838;2022-09-12T02:58:13;101402.88;;;8.53;78.25
63946;BME280;50122;56.330;43.838;2022-09-12T03:23:23;101418.81;;;8.95;77.33
63946;BME280;50122;56.330;43.838;2022-09-12T03:26:20;101409.94;;;8.99;77.15
63946;BME280;50122;56.330;43.838;2022-09-12T03:28:46;101412.47;;;9.04;77.38
63946;BME280;50122;56.330;43.838;2022-09-12T03:31:17;101415.03;;;9.10;77.02
63946;BME280;50122;56.330;43.838;2022-09-12T03:33:45;101405.34;;;9.09;76.67
63946;BME280;50122;56.330;43.838;2022-09-12T03:36:15;101419.34;;;9.14;76.64
63946;BME280;50122;56.330;43.838;2022-09-12T03:38:44;101406.03;;;9.20;75.86
63946;BME280;50122;56.330;43.838;2022-09-12T03:41:11;101413.09;;;9.17;75.41
63946;BME280;50122;56.330;43.838;2022-09-12T03:43:37;101409.53;;;9.19;75.43
63946;BME280;50122;56.330;43.838;2022-09-12T03:46:04;101416.38;;;9.30;74.81
63946;BME280;50122;56.330;43.838;2022-09-12T03:48:31;101415.41;;;9.34;74.48
63946;BME280;50122;56.330;43.838;2022-09-12T14:41:34;101270.88;;;18.70;37.37
63946;BME280;50122;56.330;43.838;2022-09-12T14:44:05;101263.88;;;18.53;38.71
63946;BME280;50122;56.330;43.838;2022-09-12T14:46:34;101266.22;;;18.59;39.14
63946;BME280;50122;56.330;43.838;2022-09-12T14:54:37;101262.06;;;18.25;38.91
63946;BME280;50122;56.330;43.838;2022-09-12T14:57:37;101265.09;;;17.72;39.18
63946;BME280;50122;56.330;43.838;2022-09-12T15:02:41;101248.94;;;16.46;42.19
63946;BME280;50122;56.330;43.838;2022-09-12T15:12:48;101268.63;;;14.59;47.10
63946;BME280;50122;56.330;43.838;2022-09-12T15:15:18;101268.13;;;14.30;47.95
63946;BME280;50122;56.330;43.838;2022-09-12T15:17:46;101281.75;;;14.02;49.31
63946;BME280;50122;56.330;43.838;2022-09-12T15:20:13;101270.72;;;13.68;49.46
63946;BME280;50122;56.330;43.838;2022-09-12T15:22:40;101278.72;;;13.46;50.47
63946;BME280;50122;56.330;43.838;2022-09-12T15:25:09;101268.22;;;13.19;51.00
63946;BME280;50122;56.330;43.838;2022-09-12T15:27:37;101268.94;;;13.01;53.00
63946;BME280;50122;56.330;43.838;2022-09-12T15:30:08;101268.94;;;12.77;53.76
63946;BME280;50122;56.330;43.838;2022-09-12T15:32:36;101281.19;;;12.56;54.10
63946;BME280;50122;56.330;43.838;2022-09-12T15:35:04;101263.56;;;12.30;54.80
63946;BME280;50122;56.330;43.838;2022-09-12T15:37:35;101281.56;;;12.20;55.32
63946;BME280;50122;56.330;43.838;2022-09-12T15:40:03;101277.78;;;12.02;56.02
63946;BME280;50122;56.330;43.838;2022-09-12T15:42:30;101280.91;;;11.87;56.43
63946;BME280;50122;56.330;43.838;2022-09-12T15:44:57;101284.94;;;11.72;57.53
63946;BME280;50122;56.330;43.838;2022-09-12T15:47:28;101287.28;;;11.54;58.01
63946;BME280;50122;56.330;43.838;2022-09-12T15:49:54;101291.84;;;11.49;58.37
63946;BME280;50122;56.330;43.838;2022-09-12T15:52:21;101287.84;;;11.36;58.90
63946;BME280;50122;56.330;43.838;2022-09-12T15:54:47;101289.84;;;11.27;59.84
63946;BME280;50122;56.330;43.838;2022-09-12T15:57:14;101265.19;;;10.97;60.22
63946;BME280;50122;56.330;43.838;2022-09-12T15:59:41;101280.22;;;10.97;60.84
63946;BME280;50122;56.330;43.838;2022-09-12T16:02:10;101286.53;;;10.91;61.38
63946;BME280;50122;56.330;43.838;2022-09-12T16:04:37;101273.81;;;10.74;61.86
63946;BME280;50122;56.330;43.838;2022-09-12T16:07:03;101299.34;;;10.75;62.60
63946;BME280;50122;56.330;43.838;2022-09-12T16:09:31;101302.22;;;10.66;62.90
63946;BME280;50122;56.330;43.838;2022-09-12T16:11:57;101298.00;;;10.58;63.46
63946;BME280;50122;56.330;43.838;2022-09-12T16:14:24;101303.56;;;10.49;63.85
63946;BME280;50122;56.330;43.838;2022-09-12T16:16:53;101301.25;;;10.37;64.22
63946;BME280;50122;56.330;43.838;2022-09-12T16:19:20;101304.03;;;10.31;64.80
63946;BME280;50122;56.330;43.838;2022-09-12T16:21:48;101302.44;;;10.23;65.02
63946;BME280;50122;56.330;43.838;2022-09-12T16:24:15;101311.34;;;10.19;65.30
63946;BME280;50122;56.330;43.838;2022-09-12T16:26:42;101308.06;;;10.11;65.52
63946;BME280;50122;56.330;43.838;2022-09-12T16:29:11;101302.03;;;10.06;66.14
63946;BME280;50122;56.330;43.838;2022-09-12T16:31:38;101303.03;;;10.00;66.41
63946;BME280;50122;56.330;43.838;2022-09-12T16:34:05;101297.97;;;9.93;66.92
63946;BME280;50122;56.330;43.838;2022-09-12T16:36:32;101299.78;;;9.89;67.35
63946;BME280;50122;56.330;43.838;2022-09-12T16:38:59;101297.41;;;9.80;67.63
63946;BME280;50122;56.330;43.838;2022-09-12T16:41:27;101302.78;;;9.75;67.31
63946;BME280;50122;56.330;43.838;2022-09-12T16:43:54;101304.63;;;9.71;68.03
63946;BME280;50122;56.330;43.838;2022-09-12T16:46:23;101303.94;;;9.63;68.28
63946;BME280;50122;56.330;43.838;2022-09-12T16:48:52;101291.94;;;9.50;68.78
63946;BME280;50122;56.330;43.838;2022-09-12T16:51:21;101283.28;;;9.45;69.24
63946;BME280;50122;56.330;43.838;2022-09-12T16:53:48;101297.38;;;9.44;68.89
63946;BME280;50122;56.330;43.838;2022-09-12T16:56:15;101306.25;;;9.39;69.63
63946;BME280;50122;56.330;43.838;2022-09-12T16:58:42;101300.22;;;9.33;69.92
63946;BME280;50122;56.330;43.838;2022-09-12T17:01:13;101300.38;;;9.27;70.49
63946;BME280;50122;56.330;43.838;2022-09-12T17:03:40;101293.53;;;9.18;70.47
63946;BME280;50122;56.330;43.838;2022-09-12T17:06:13;101305.00;;;9.15;71.03
63946;BME280;50122;56.330;43.838;2022-09-12T17:08:43;101290.44;;;8.99;70.86
63946;BME280;50122;56.330;43.838;2022-09-12T17:11:13;101310.56;;;9.03;71.49
63946;BME280;50122;56.330;43.838;2022-09-12T17:13:40;101300.31;;;8.88;71.71
63946;BME280;50122;56.330;43.838;2022-09-12T17:16:27;101302.91;;;8.91;72.18
63946;BME280;50122;56.330;43.838;2022-09-12T17:18:54;101317.00;;;8.88;72.02
63946;BME280;50122;56.330;43.838;2022-09-12T17:21:21;101310.97;;;8.83;72.12
63946;BME280;50122;56.330;43.838;2022-09-12T17:23:48;101301.56;;;8.68;72.64
63946;BME280;50122;56.330;43.838;2022-09-12T17:26:15;101319.91;;;8.76;72.72
63946;BME280;50122;56.330;43.838;2022-09-12T17:28:42;101326.16;;;8.70;72.88
63946;BME280;50122;56.330;43.838;2022-09-12T17:31:11;101322.00;;;8.58;72.62
63946;BME280;50122;56.330;43.838;2022-09-12T17:33:38;101326.47;;;8.53;73.29
63946;BME280;50122;56.330;43.838;2022-09-12T17:36:08;101304.00;;;8.30;73.47
63946;BME280;50122;56.330;43.838;2022-09-12T17:38:36;101322.28;;;8.41;73.53
63946;BME280;50122;56.330;43.838;2022-09-12T17:41:05;101316.22;;;8.34;73.79
63946;BME280;50122;56.330;43.838;2022-09-12T17:43:34;101319.75;;;8.35;73.67
63946;BME280;50122;56.330;43.838;2022-09-12T17:46:01;101319.94;;;8.24;74.43
63946;BME280;50122;56.330;43.838;2022-09-12T17:48:28;101300.75;;;8.16;74.11
63946;BME280;50122;56.330;43.838;2022-09-12T17:50:55;101306.22;;;8.05;74.15
63946;BME280;50122;56.330;43.838;2022-09-12T17:53:22;101327.09;;;8.14;74.81
63946;BME280;50122;56.330;43.838;2022-09-12T17:55:49;101328.09;;;8.07;74.37
63946;BME280;50122;56.330;43.838;2022-09-12T17:58:19;101315.91;;;8.03;74.45
63946;BME280;50122;56.330;43.838;2022-09-12T18:00:46;101326.44;;;8.03;74.99
63946;BME280;50122;56.330;43.838;2022-09-12T18:03:31;101295.19;;;7.83;75.16
63946;BME280;50122;56.330;43.838;2022-09-12T18:06:00;101316.09;;;7.92;75.07
63946;BME280;50122;56.330;43.838;2022-09-12T18:08:27;101320.53;;;7.89;75.33
63946;BME280;50122;56.330;43.838;2022-09-12T18:11:02;101314.56;;;7.77;75.65
63946;BME280;50122;56.330;43.838;2022-09-12T18:13:31;101323.41;;;7.73;75.66
63946;BME280;50122;56.330;43.838;2022-09-12T18:16:06;101332.09;;;7.77;76.23
63946;BME280;50122;56.330;43.838;2022-09-12T18:18:34;101315.59;;;7.69;76.53
63946;BME280;50122;56.330;43.838;2022-09-12T18:21:04;101323.47;;;7.70;76.63
63946;BME280;50122;56.330;43.838;2022-09-12T18:23:31;101318.31;;;7.61;76.42
63946;BME280;50122;56.330;43.838;2022-09-12T18:26:01;101321.88;;;7.60;76.79
63946;BME280;50122;56.330;43.838;2022-09-12T18:28:28;101326.28;;;7.56;76.65
63946;BME280;50122;56.330;43.838;2022-09-12T18:30:57;101316.66;;;7.54;76.55
63946;BME280;50122;56.330;43.838;2022-09-12T18:33:23;101305.38;;;7.47;77.15
63946;BME280;50122;56.330;43.838;2022-09-12T18:35:50;101314.97;;;7.51;77.45
63946;BME280;50122;56.330;43.838;2022-09-12T18:38:17;101315.00;;;7.46;77.44
63946;BME280;50122;56.330;43.838;2022-09-12T18:40:44;101312.47;;;7.42;77.81
63946;BME280;50122;56.330;43.838;2022-09-12T18:43:10;101310.75;;;7.38;77.42
63946;BME280;50122;56.330;43.838;2022-09-12T18:45:37;101316.91;;;7.38;77.85
63946;BME280;50122;56.330;43.838;2022-09-12T18:48:06;101323.97;;;7.35;77.71
63946;BME280;50122;56.330;43.838;2022-09-12T18:50:37;101317.06;;;7.26;78.40
63946;BME280;50122;56.330;43.838;2022-09-12T18:53:04;101317.13;;;7.23;78.17
63946;BME280;50122;56.330;43.838;2022-09-12T18:55:31;101305.84;;;7.13;78.23
63946;BME280;50122;56.330;43.838;2022-09-12T18:57:58;101311.13;;;7.10;78.40
63946;BME280;50122;56.330;43.838;2022-09-12T19:00:25;101313.78;;;7.10;78.09
63946;BME280;50122;56.330;43.838;2022-09-12T19:02:52;101309.47;;;7.03;78.23
63946;BME280;50122;56.330;43.838;2022-09-12T19:05:18;101280.75;;;6.89;78.29
63946;BME280;50122;56.330;43.838;2022-09-12T19:07:45;101307.81;;;6.95;78.91
63946;BME280;50122;56.330;43.838;2022-09-12T19:10:12;101302.59;;;6.94;78.37
63946;BME280;50122;56.330;43.838;2022-09-12T19:12:38;101296.50;;;6.89;78.92
63946;BME280;50122;56.330;43.838;2022-09-12T19:15:05;101300.06;;;6.86;78.79
63946;BME280;50122;56.330;43.838;2022-09-12T19:17:32;101301.81;;;6.86;78.59
63946;BME280;50122;56.330;43.838;2022-09-12T19:19:59;101301.88;;;6.81;78.71
63946;BME280;50122;56.330;43.838;2022-09-12T19:22:25;101307.06;;;6.86;79.06
63946;BME280;50122;56.330;43.838;2022-09-12T19:24:52;101312.34;;;6.83;79.54
63946;BME280;50122;56.330;43.838;2022-09-12T19:27:20;101303.63;;;6.82;79.46
63946;BME280;50122;56.330;43.838;2022-09-12T19:29:47;101309.72;;;6.83;79.76
63946;BME280;50122;56.330;43.838;2022-09-12T19:32:13;101309.81;;;6.76;79.52
63946;BME280;50122;56.330;43.838;2022-09-12T19:34:40;101311.56;;;6.74;79.65
63946;BME280;50122;56.330;43.838;2022-09-12T19:37:07;101308.13;;;6.69;79.69
63946;BME280;50122;56.330;43.838;2022-09-12T19:39:34;101313.38;;;6.71;79.54
63946;BME280;50122;56.330;43.838;2022-09-12T19:42:01;101307.28;;;6.69;79.91
63946;BME280;50122;56.330;43.838;2022-09-12T19:44:29;101313.44;;;6.66;80.13
63946;BME280;50122;56.330;43.838;2022-09-12T19:46:55;101313.47;;;6.63;80.03
63946;BME280;50122;56.330;43.838;2022-09-12T19:49:22;101302.09;;;6.61;79.79
63946;BME280;50122;56.330;43.838;2022-09-12T19:51:50;101306.53;;;6.57;80.02
63946;BME280;50122;56.330;43.838;2022-09-12T19:54:16;101273.44;;;6.39;79.62
63946;BME280;50122;56.330;43.838;2022-09-12T19:56:43;101296.97;;;6.50;80.19
63946;BME280;50122;56.330;43.838;2022-09-12T19:59:10;101307.47;;;6.52;80.19
63946;BME280;50122;56.330;43.838;2022-09-12T20:01:37;101310.97;;;6.51;80.11
63946;BME280;50122;56.330;43.838;2022-09-12T20:04:04;101310.97;;;6.49;80.16
63946;BME280;50122;56.330;43.838;2022-09-12T20:06:32;101311.88;;;6.47;80.09
63946;BME280;50122;56.330;43.838;2022-09-12T20:08:58;101310.13;;;6.44;80.63
63946;BME280;50122;56.330;43.838;2022-09-12T20:11:26;101298.84;;;6.37;80.65
63946;BME280;50122;56.330;43.838;2022-09-12T20:13:52;101310.19;;;6.41;80.47
63946;BME280;50122;56.330;43.838;2022-09-12T20:16:24;101311.09;;;6.40;80.93
63946;BME280;50122;56.330;43.838;2022-09-12T20:18:58;101311.97;;;6.37;80.74
63946;BME280;50122;56.330;43.838;2022-09-12T20:21:27;101304.16;;;6.30;80.50
63946;BME280;50122;56.330;43.838;2022-09-12T20:24:06;101302.41;;;6.30;81.15
63946;BME280;50122;56.330;43.838;2022-09-12T20:26:33;101314.66;;;6.30;81.21
63946;BME280;50122;56.330;43.838;2022-09-12T20:29:00;101287.66;;;6.15;81.24
63946;BME280;50122;56.330;43.838;2022-09-12T20:31:27;101305.09;;;6.27;81.33
63946;BME280;50122;56.330;43.838;2022-09-12T20:33:54;101296.38;;;6.22;80.96
63946;BME280;50122;56.330;43.838;2022-09-12T20:36:22;101315.63;;;6.24;81.71
63946;BME280;50122;56.330;43.838;2022-09-12T20:38:53;101299.94;;;6.15;81.38
63946;BME280;50122;56.330;43.838;2022-09-12T20:41:23;101303.41;;;6.20;81.47
63946;BME280;50122;56.330;43.838;2022-09-12T20:43:52;101315.63;;;6.21;81.76
63946;BME280;50122;56.330;43.838;2022-09-12T20:46:20;101307.75;;;6.21;81.57
63946;BME280;50122;56.330;43.838;2022-09-12T20:48:48;101292.91;;;6.15;81.84
63946;BME280;50122;56.330;43.838;2022-09-12T20:51:15;101292.94;;;6.17;82.20
63946;BME280;50122;56.330;43.838;2022-09-12T20:53:42;101310.34;;;6.25;82.22
63946;BME280;50122;56.330;43.838;2022-09-12T20:56:08;101292.91;;;6.18;82.20
63946;BME280;50122;56.330;43.838;2022-09-12T20:58:35;101305.09;;;6.25;82.24
63946;BME280;50122;56.330;43.838;2022-09-12T21:01:10;101278.13;;;6.06;82.44
63946;BME280;50122;56.330;43.838;2022-09-12T21:03:37;101307.72;;;6.25;82.56
63946;BME280;50122;56.330;43.838;2022-09-12T21:06:05;101288.59;;;6.13;82.93
63946;BME280;50122;56.330;43.838;2022-09-12T21:08:33;101312.06;;;6.28;82.78
63946;BME280;50122;56.330;43.838;2022-09-12T21:11:00;101308.59;;;6.26;82.83
63946;BME280;50122;56.330;43.838;2022-09-12T21:13:27;101316.50;;;6.23;82.68
63946;BME280;50122;56.330;43.838;2022-09-12T21:16:02;101307.75;;;6.19;82.90
63946;BME280;50122;56.330;43.838;2022-09-12T21:18:30;101305.22;;;6.12;82.62
63946;BME280;50122;56.330;43.838;2022-09-12T21:20:58;101316.56;;;6.17;82.76
63946;BME280;50122;56.330;43.838;2022-09-12T21:23:25;101315.69;;;6.13;83.21
63946;BME280;50122;56.330;43.838;2022-09-12T21:25:53;101321.84;;;6.11;82.63
63946;BME280;50122;56.330;43.838;2022-09-12T21:28:20;101305.28;;;6.04;82.79
63946;BME280;50122;56.330;43.838;2022-09-12T21:30:47;101317.50;;;6.05;82.99
63946;BME280;50122;56.330;43.838;2022-09-12T21:33:17;101321.91;;;6.03;82.91
63946;BME280;50122;56.330;43.838;2022-09-12T21:35:45;101306.22;;;5.90;82.83
63946;BME280;50122;56.330;43.838;2022-09-12T21:38:16;101319.34;;;5.95;82.95
63946;BME280;50122;56.330;43.838;2022-09-12T21:40:44;101304.53;;;5.82;83.00
63946;BME280;50122;56.330;43.838;2022-09-12T21:43:12;101319.38;;;5.86;83.13
63946;BME280;50122;56.330;43.838;2022-09-12T21:45:39;101326.41;;;5.85;83.11
63946;BME280;50122;56.330;43.838;2022-09-12T21:48:06;101327.31;;;5.81;83.17
63946;BME280;50122;56.330;43.838;2022-09-12T21:50:33;101322.94;;;5.79;83.02
63946;BME280;50122;56.330;43.838;2022-09-12T21:52:59;101332.59;;;5.77;82.95
63946;BME280;50122;56.330;43.838;2022-09-12T21:55:27;101330.84;;;5.76;83.42
63946;BME280;50122;56.330;43.838;2022-09-12T21:57:54;101316.03;;;5.65;83.31
63946;BME280;50122;56.330;43.838;2022-09-12T22:00:21;101329.09;;;5.73;83.32
63946;BME280;50122;56.330;43.838;2022-09-12T22:02:48;101311.69;;;5.63;83.41
63946;BME280;50122;56.330;43.838;2022-09-12T22:05:15;101330.91;;;5.68;83.50
63946;BME280;50122;56.330;43.838;2022-09-12T22:07:42;101318.72;;;5.61;83.62
63946;BME280;50122;56.330;43.838;2022-09-12T22:10:09;101330.03;;;5.64;83.42
63946;BME280;50122;56.330;43.838;2022-09-12T22:12:35;101332.69;;;5.60;83.34
63946;BME280;50122;56.330;43.838;2022-09-12T22:15:02;101332.72;;;5.56;83.47
63946;BME280;50122;56.330;43.838;2022-09-12T22:17:50;101311.81;;;5.44;83.55
63946;BME280;50122;56.330;43.838;2022-09-12T22:20:16;101323.13;;;5.52;83.88
63946;BME280;50122;56.330;43.838;2022-09-12T22:22:44;101327.50;;;5.52;83.69
63946;BME280;50122;56.330;43.838;2022-09-12T22:25:29;101331.03;;;5.48;83.95
63946;BME280;50122;56.330;43.838;2022-09-12T22:27:56;101338.91;;;5.45;83.54
63946;BME280;50122;56.330;43.838;2022-09-12T22:30:23;101320.56;;;5.40;84.01
63946;BME280;50122;56.330;43.838;2022-09-12T22:32:52;101318.84;;;5.37;83.50
63946;BME280;50122;56.330;43.838;2022-09-12T22:35:19;101293.59;;;5.19;83.57
63946;BME280;50122;56.330;43.838;2022-09-12T22:37:46;101309.28;;;5.29;83.45
63946;BME280;50122;56.330;43.838;2022-09-12T22:40:13;101311.03;;;5.25;83.68
63946;BME280;50122;56.330;43.838;2022-09-12T22:42:41;101309.31;;;5.21;83.88
63946;BME280;50122;56.330;43.838;2022-09-12T22:45:09;101308.44;;;5.20;83.78
63946;BME280;50122;56.330;43.838;2022-09-12T22:47:35;101312.84;;;5.20;83.83
63946;BME280;50122;56.330;43.838;2022-09-12T22:50:03;101317.19;;;5.19;84.03
63946;BME280;50122;56.330;43.838;2022-09-12T22:52:29;101317.22;;;5.16;83.88
63946;BME280;50122;56.330;43.838;2022-09-12T22:54:56;101318.09;;;5.12;83.78
63946;BME280;50122;56.330;43.838;2022-09-12T22:57:22;101306.75;;;5.12;83.98
63946;BME280;50122;56.330;43.838;2022-09-12T22:59:49;101307.63;;;5.08;84.21
63946;BME280;50122;56.330;43.838;2022-09-12T23:02:16;101302.41;;;5.04;83.98
63946;BME280;50122;56.330;43.838;2022-09-12T23:04:43;101305.03;;;5.04;84.01
63946;BME280;50122;56.330;43.838;2022-09-12T23:07:12;101309.41;;;4.99;83.89
63946;BME280;50122;56.330;43.838;2022-09-12T23:09:38;101296.38;;;4.92;83.95
63946;BME280;50122;56.330;43.838;2022-09-12T23:12:06;101311.19;;;4.94;84.12
63946;BME280;50122;56.330;43.838;2022-09-12T23:14:32;101305.97;;;4.91;83.84
63946;BME280;50122;56.330;43.838;2022-09-12T23:16:59;101311.22;;;4.91;83.83
63946;BME280;50122;56.330;43.838;2022-09-12T23:19:26;101313.81;;;4.88;83.98
63946;BME280;50122;56.330;43.838;2022-09-12T23:21:52;101302.50;;;4.84;84.21
63946;BME280;50122;56.330;43.838;2022-09-12T23:24:19;101258.06;;;4.61;84.17
63946;BME280;50122;56.330;43.838;2022-09-12T23:26:48;101300.75;;;4.85;84.21
63946;BME280;50122;56.330;43.838;2022-09-12T23:29:14;101266.78;;;4.62;84.19
63946;BME280;50122;56.330;43.838;2022-09-12T23:31:41;101298.13;;;4.82;84.45
63946;BME280;50122;56.330;43.838;2022-09-12T23:34:09;101293.78;;;4.84;84.61
63946;BME280;50122;56.330;43.838;2022-09-12T23:36:36;101295.50;;;4.85;85.16
63946;BME280;50122;56.330;43.838;2022-09-12T23:39:03;101291.16;;;4.84;84.88
63946;BME280;50122;56.330;43.838;2022-09-12T23:41:30;101294.66;;;4.84;85.30
63946;BME280;50122;56.330;43.838;2022-09-12T23:43:56;101290.25;;;4.85;85.17
63946;BME280;50122;56.330;43.838;2022-09-12T23:46:23;101289.41;;;4.83;85.14
63946;BME280;50122;56.330;43.838;2022-09-12T23:48:50;101292.00;;;4.87;85.44
63946;BME280;50122;56.330;43.838;2022-09-12T23:51:18;101285.03;;;4.86;85.29
63946;BME280;50122;56.330;43.838;2022-09-12T23:53:47;101285.03;;;4.82;85.15
63946;BME280;50122;56.330;43.838;2022-09-12T23:56:14;101303.34;;;4.88;85.40
63946;BME280;50122;56.330;43.838;2022-09-12T23:58:41;101295.50;;;4.88;85.41
